AAR8971 RKSS-RKPC
Flight info
| Callsign | AAR8971 |
|---|---|
| Flight time | 0h 48m |
| Altitude | 26000 |
| Route | BULTI2T BULTI Y711 DOTOL DOTOL2M |
| Aircraft | A321/M-SDE2E3FGHIM3RWXY/LB1D1 |
Departure
| Time | 2026-04-29 14:28 |
|---|---|
| Airport | Gimpo International Airport (RKSS) |
Arrival
| Time | 2026-04-29 15:17 |
|---|---|
| Airport | Jeju International Airport (RKPC) |
| Time | Latitude | Longitude | Altitude | Speed | Heading |
|---|---|---|---|---|---|
| 2026-04-29 14:04 | 37.55834 | 126.80192 | 67 ft | 0 kts | 44° |
| 2026-04-29 14:19 | 37.55825 | 126.80181 | 67 ft | 2 kts | 46° |
| 2026-04-29 14:19 | 37.55814 | 126.80167 | 61 ft | 2 kts | 47° |
| 2026-04-29 14:19 | 37.55803 | 126.80152 | 58 ft | 2 kts | 50° |
| 2026-04-29 14:20 | 37.55793 | 126.80136 | 60 ft | 2 kts | 57° |
| 2026-04-29 14:20 | 37.55785 | 126.80118 | 61 ft | 2 kts | 80° |
| 2026-04-29 14:20 | 37.55786 | 126.80098 | 59 ft | 2 kts | 131° |
| 2026-04-29 14:20 | 37.55791 | 126.80092 | 58 ft | 0 kts | 136° |
| 2026-04-29 14:23 | 37.55779 | 126.80106 | 59 ft | 8 kts | 134° |
| 2026-04-29 14:24 | 37.55731 | 126.80168 | 61 ft | 11 kts | 134° |
| 2026-04-29 14:24 | 37.55673 | 126.80242 | 61 ft | 13 kts | 134° |
| 2026-04-29 14:24 | 37.55601 | 126.80311 | 63 ft | 13 kts | 175° |
| 2026-04-29 14:24 | 37.55526 | 126.80249 | 62 ft | 14 kts | 226° |
| 2026-04-29 14:25 | 37.55442 | 126.80185 | 62 ft | 15 kts | 169° |
| 2026-04-29 14:25 | 37.55372 | 126.80275 | 60 ft | 15 kts | 135° |
| 2026-04-29 14:25 | 37.55290 | 126.80364 | 65 ft | 16 kts | 138° |
| 2026-04-29 14:25 | 37.55206 | 126.80468 | 62 ft | 18 kts | 135° |
| 2026-04-29 14:26 | 37.55118 | 126.80580 | 66 ft | 19 kts | 135° |
| 2026-04-29 14:26 | 37.55036 | 126.80683 | 60 ft | 16 kts | 136° |
| 2026-04-29 14:26 | 37.54953 | 126.80787 | 59 ft | 14 kts | 135° |
| 2026-04-29 14:26 | 37.54876 | 126.80822 | 61 ft | 13 kts | 205° |
| 2026-04-29 14:27 | 37.54806 | 126.80729 | 57 ft | 12 kts | 238° |
| 2026-04-29 14:27 | 37.54827 | 126.80650 | 54 ft | 10 kts | 311° |
| 2026-04-29 14:27 | 37.54889 | 126.80572 | 59 ft | 22 kts | 315° |
| 2026-04-29 14:28 | 37.55855 | 126.79354 | 59 ft | 162 kts | 315° |
| 2026-04-29 14:28 | 37.56703 | 126.78290 | 637 ft | 166 kts | 314° |
| 2026-04-29 14:28 | 37.57495 | 126.77270 | 1478 ft | 166 kts | 313° |
| 2026-04-29 14:28 | 37.58333 | 126.76137 | 1962 ft | 187 kts | 313° |
| 2026-04-29 14:29 | 37.59271 | 126.74863 | 2390 ft | 209 kts | 313° |
| 2026-04-29 14:29 | 37.60323 | 126.73443 | 2784 ft | 235 kts | 314° |
| 2026-04-29 14:29 | 37.61492 | 126.71872 | 3225 ft | 254 kts | 313° |
| 2026-04-29 14:29 | 37.62485 | 126.69968 | 3950 ft | 262 kts | 291° |
| 2026-04-29 14:30 | 37.62784 | 126.67725 | 4735 ft | 267 kts | 265° |
| 2026-04-29 14:30 | 37.62228 | 126.65493 | 5525 ft | 271 kts | 237° |
| 2026-04-29 14:30 | 37.60876 | 126.63810 | 6353 ft | 273 kts | 209° |
| 2026-04-29 14:30 | 37.59094 | 126.63121 | 7124 ft | 275 kts | 181° |
| 2026-04-29 14:31 | 37.57189 | 126.63394 | 7875 ft | 277 kts | 169° |
| 2026-04-29 14:31 | 37.55281 | 126.63835 | 8654 ft | 281 kts | 168° |
| 2026-04-29 14:31 | 37.53321 | 126.64291 | 9449 ft | 284 kts | 168° |
| 2026-04-29 14:31 | 37.51363 | 126.64741 | 10189 ft | 289 kts | 168° |
| 2026-04-29 14:32 | 37.49337 | 126.65206 | 10440 ft | 311 kts | 168° |
| 2026-04-29 14:32 | 37.47096 | 126.65720 | 10603 ft | 335 kts | 168° |
| 2026-04-29 14:32 | 37.44750 | 126.66255 | 10973 ft | 348 kts | 169° |
| 2026-04-29 14:32 | 37.42353 | 126.66797 | 11611 ft | 352 kts | 169° |
| 2026-04-29 14:33 | 37.39929 | 126.67343 | 12314 ft | 355 kts | 169° |
| 2026-04-29 14:33 | 37.37484 | 126.67889 | 13017 ft | 358 kts | 169° |
| 2026-04-29 14:33 | 37.35023 | 126.68442 | 13727 ft | 361 kts | 169° |
| 2026-04-29 14:33 | 37.32565 | 126.68997 | 14363 ft | 365 kts | 169° |
| 2026-04-29 14:34 | 37.30057 | 126.69565 | 14966 ft | 368 kts | 169° |
| 2026-04-29 14:34 | 37.27526 | 126.70136 | 15567 ft | 372 kts | 170° |
| 2026-04-29 14:34 | 37.24967 | 126.70713 | 16180 ft | 375 kts | 171° |
| 2026-04-29 14:34 | 37.22386 | 126.71295 | 16783 ft | 379 kts | 171° |
| 2026-04-29 14:35 | 37.19780 | 126.71881 | 17390 ft | 383 kts | 172° |
| 2026-04-29 14:35 | 37.17143 | 126.72473 | 17964 ft | 387 kts | 173° |
| 2026-04-29 14:35 | 37.14480 | 126.73068 | 18515 ft | 391 kts | 173° |
| 2026-04-29 14:35 | 37.11791 | 126.73668 | 19011 ft | 394 kts | 173° |
| 2026-04-29 14:36 | 37.09079 | 126.74273 | 19518 ft | 398 kts | 173° |
| 2026-04-29 14:36 | 37.06344 | 126.74886 | 20014 ft | 401 kts | 174° |
| 2026-04-29 14:36 | 37.03588 | 126.75505 | 20531 ft | 404 kts | 174° |
| 2026-04-29 14:36 | 37.00813 | 126.76129 | 21031 ft | 407 kts | 174° |
| 2026-04-29 14:37 | 36.98017 | 126.76756 | 21534 ft | 409 kts | 174° |
| 2026-04-29 14:37 | 36.95208 | 126.77385 | 22029 ft | 412 kts | 174° |
| 2026-04-29 14:37 | 36.92373 | 126.78018 | 22498 ft | 414 kts | 174° |
| 2026-04-29 14:37 | 36.89526 | 126.78652 | 22955 ft | 417 kts | 175° |
| 2026-04-29 14:38 | 36.86657 | 126.79289 | 23413 ft | 420 kts | 175° |
| 2026-04-29 14:38 | 36.84709 | 126.79722 | 23703 ft | 422 kts | 175° |
| 2026-04-29 14:38 | 36.81812 | 126.80365 | 24083 ft | 424 kts | 175° |
| 2026-04-29 14:38 | 36.78901 | 126.81012 | 24486 ft | 425 kts | 175° |
| 2026-04-29 14:39 | 36.75983 | 126.81661 | 24891 ft | 426 kts | 176° |
| 2026-04-29 14:39 | 36.73114 | 126.82292 | 25348 ft | 424 kts | 178° |
| 2026-04-29 14:39 | 36.70197 | 126.82581 | 25773 ft | 419 kts | 184° |
| 2026-04-29 14:39 | 36.67278 | 126.82696 | 26054 ft | 419 kts | 185° |
| 2026-04-29 14:40 | 36.64377 | 126.82811 | 26117 ft | 415 kts | 185° |
| 2026-04-29 14:40 | 36.61457 | 126.82926 | 26123 ft | 413 kts | 185° |
| 2026-04-29 14:40 | 36.58629 | 126.83033 | 26124 ft | 412 kts | 185° |
| 2026-04-29 14:40 | 36.55762 | 126.83137 | 26103 ft | 412 kts | 185° |
| 2026-04-29 14:41 | 36.52905 | 126.83242 | 26130 ft | 410 kts | 185° |
| 2026-04-29 14:41 | 36.50057 | 126.83347 | 26127 ft | 409 kts | 185° |
| 2026-04-29 14:41 | 36.47203 | 126.83451 | 26128 ft | 410 kts | 185° |
| 2026-04-29 14:41 | 36.44356 | 126.83559 | 26131 ft | 410 kts | 185° |
| 2026-04-29 14:42 | 36.41502 | 126.83671 | 26131 ft | 410 kts | 185° |
| 2026-04-29 14:42 | 36.38651 | 126.83748 | 26129 ft | 408 kts | 188° |
| 2026-04-29 14:42 | 36.35843 | 126.83481 | 26124 ft | 405 kts | 191° |
| 2026-04-29 14:42 | 36.33034 | 126.83166 | 26125 ft | 405 kts | 191° |
| 2026-04-29 14:43 | 36.30229 | 126.82855 | 26127 ft | 405 kts | 191° |
| 2026-04-29 14:43 | 36.27424 | 126.82548 | 26132 ft | 405 kts | 191° |
| 2026-04-29 14:43 | 36.24619 | 126.82247 | 26134 ft | 405 kts | 191° |
| 2026-04-29 14:43 | 36.21814 | 126.81948 | 26135 ft | 404 kts | 191° |
| 2026-04-29 14:44 | 36.19011 | 126.81647 | 26140 ft | 404 kts | 191° |
| 2026-04-29 14:44 | 36.16215 | 126.81344 | 26119 ft | 404 kts | 191° |
| 2026-04-29 14:44 | 36.13415 | 126.81038 | 26132 ft | 404 kts | 191° |
| 2026-04-29 14:44 | 36.10619 | 126.80733 | 26140 ft | 403 kts | 191° |
| 2026-04-29 14:45 | 36.07824 | 126.80429 | 26144 ft | 403 kts | 191° |
| 2026-04-29 14:45 | 36.05032 | 126.80128 | 26147 ft | 402 kts | 191° |
| 2026-04-29 14:45 | 36.02244 | 126.79829 | 26148 ft | 402 kts | 191° |
| 2026-04-29 14:45 | 35.99457 | 126.79530 | 26149 ft | 402 kts | 191° |
| 2026-04-29 14:46 | 35.96676 | 126.79228 | 26129 ft | 402 kts | 192° |
| 2026-04-29 14:46 | 35.93892 | 126.78922 | 26142 ft | 401 kts | 192° |
| 2026-04-29 14:46 | 35.91112 | 126.78617 | 26151 ft | 401 kts | 192° |
| 2026-04-29 14:46 | 35.88336 | 126.78314 | 26152 ft | 400 kts | 192° |
| 2026-04-29 14:47 | 35.85564 | 126.78015 | 26154 ft | 400 kts | 192° |
| 2026-04-29 14:47 | 35.82792 | 126.77718 | 26158 ft | 400 kts | 192° |
| 2026-04-29 14:47 | 35.80023 | 126.77420 | 26157 ft | 399 kts | 192° |
| 2026-04-29 14:47 | 35.77262 | 126.77121 | 26149 ft | 399 kts | 192° |
| 2026-04-29 14:48 | 35.74496 | 126.76819 | 26153 ft | 398 kts | 192° |
| 2026-04-29 14:48 | 35.71731 | 126.76519 | 26154 ft | 398 kts | 192° |
| 2026-04-29 14:48 | 35.68976 | 126.76222 | 26159 ft | 398 kts | 192° |
| 2026-04-29 14:48 | 35.66223 | 126.75927 | 26162 ft | 397 kts | 192° |
| 2026-04-29 14:49 | 35.63471 | 126.75632 | 26162 ft | 397 kts | 192° |
| 2026-04-29 14:49 | 35.60717 | 126.75334 | 26160 ft | 397 kts | 192° |
| 2026-04-29 14:49 | 35.57964 | 126.75036 | 26140 ft | 397 kts | 193° |
| 2026-04-29 14:49 | 35.55219 | 126.74739 | 26167 ft | 396 kts | 193° |
| 2026-04-29 14:50 | 35.52474 | 126.74441 | 26170 ft | 396 kts | 192° |
| 2026-04-29 14:50 | 35.49735 | 126.74146 | 26167 ft | 395 kts | 192° |
| 2026-04-29 14:50 | 35.46990 | 126.73851 | 26165 ft | 395 kts | 192° |
| 2026-04-29 14:50 | 35.44252 | 126.73560 | 26163 ft | 395 kts | 192° |
| 2026-04-29 14:51 | 35.41511 | 126.73271 | 26150 ft | 395 kts | 192° |
| 2026-04-29 14:51 | 35.38773 | 126.72983 | 26148 ft | 392 kts | 192° |
| 2026-04-29 14:51 | 35.36112 | 126.72711 | 26153 ft | 374 kts | 192° |
| 2026-04-29 14:51 | 35.33576 | 126.72454 | 26151 ft | 358 kts | 193° |
| 2026-04-29 14:52 | 35.31143 | 126.72206 | 26153 ft | 344 kts | 193° |
| 2026-04-29 14:52 | 35.28811 | 126.71964 | 26154 ft | 329 kts | 193° |
| 2026-04-29 14:52 | 35.26580 | 126.71728 | 26147 ft | 314 kts | 194° |
| 2026-04-29 14:52 | 35.24454 | 126.71501 | 26150 ft | 300 kts | 194° |
| 2026-04-29 14:53 | 35.22412 | 126.71280 | 26157 ft | 291 kts | 195° |
| 2026-04-29 14:53 | 35.20401 | 126.71054 | 26153 ft | 289 kts | 195° |
| 2026-04-29 14:53 | 35.18401 | 126.70827 | 26144 ft | 288 kts | 195° |
| 2026-04-29 14:53 | 35.16430 | 126.70606 | 26153 ft | 288 kts | 195° |
| 2026-04-29 14:54 | 35.14410 | 126.70384 | 26156 ft | 288 kts | 195° |
| 2026-04-29 14:54 | 35.12416 | 126.70170 | 26155 ft | 288 kts | 195° |
| 2026-04-29 14:54 | 35.10420 | 126.69959 | 26155 ft | 288 kts | 195° |
| 2026-04-29 14:54 | 35.08423 | 126.69747 | 26077 ft | 290 kts | 195° |
| 2026-04-29 14:55 | 35.06423 | 126.69536 | 25850 ft | 285 kts | 195° |
| 2026-04-29 14:55 | 35.04443 | 126.69326 | 25801 ft | 287 kts | 195° |
| 2026-04-29 14:55 | 35.02452 | 126.69110 | 25734 ft | 289 kts | 195° |
| 2026-04-29 14:55 | 35.00431 | 126.68890 | 25672 ft | 294 kts | 194° |
| 2026-04-29 14:56 | 34.98383 | 126.68670 | 25613 ft | 297 kts | 194° |
| 2026-04-29 14:56 | 34.96310 | 126.68450 | 25553 ft | 301 kts | 194° |
| 2026-04-29 14:56 | 34.94241 | 126.68234 | 25494 ft | 304 kts | 194° |
| 2026-04-29 14:56 | 34.92127 | 126.68012 | 25442 ft | 306 kts | 194° |
| 2026-04-29 14:57 | 34.90044 | 126.67801 | 25367 ft | 294 kts | 194° |
| 2026-04-29 14:57 | 34.88010 | 126.67595 | 25305 ft | 288 kts | 194° |
| 2026-04-29 14:57 | 34.85975 | 126.67374 | 25254 ft | 303 kts | 194° |
| 2026-04-29 14:57 | 34.83819 | 126.67125 | 25194 ft | 317 kts | 194° |
| 2026-04-29 14:58 | 34.81635 | 126.66884 | 25115 ft | 321 kts | 194° |
| 2026-04-29 14:58 | 34.79402 | 126.66650 | 25036 ft | 323 kts | 193° |
| 2026-04-29 14:58 | 34.77156 | 126.66418 | 24972 ft | 324 kts | 193° |
| 2026-04-29 14:58 | 34.74908 | 126.66188 | 24756 ft | 325 kts | 193° |
| 2026-04-29 14:59 | 34.72664 | 126.65959 | 24333 ft | 323 kts | 193° |
| 2026-04-29 14:59 | 34.70428 | 126.65725 | 23920 ft | 321 kts | 194° |
| 2026-04-29 14:59 | 34.68193 | 126.65490 | 23515 ft | 325 kts | 193° |
| 2026-04-29 14:59 | 34.65950 | 126.65253 | 23045 ft | 322 kts | 193° |
| 2026-04-29 15:00 | 34.63727 | 126.65020 | 22614 ft | 320 kts | 193° |
| 2026-04-29 15:00 | 34.61515 | 126.64788 | 22189 ft | 319 kts | 193° |
| 2026-04-29 15:00 | 34.59309 | 126.64558 | 21753 ft | 317 kts | 193° |
| 2026-04-29 15:00 | 34.57120 | 126.64326 | 21359 ft | 315 kts | 193° |
| 2026-04-29 15:01 | 34.54939 | 126.64093 | 20958 ft | 314 kts | 193° |
| 2026-04-29 15:01 | 34.52766 | 126.63863 | 20557 ft | 313 kts | 193° |
| 2026-04-29 15:01 | 34.50599 | 126.63638 | 20151 ft | 312 kts | 192° |
| 2026-04-29 15:01 | 34.48445 | 126.63417 | 19744 ft | 311 kts | 192° |
| 2026-04-29 15:02 | 34.46280 | 126.63194 | 19340 ft | 311 kts | 192° |
| 2026-04-29 15:02 | 34.44129 | 126.62972 | 18930 ft | 310 kts | 192° |
| 2026-04-29 15:02 | 34.41979 | 126.62752 | 18509 ft | 310 kts | 192° |
| 2026-04-29 15:02 | 34.39828 | 126.62528 | 18036 ft | 309 kts | 192° |
| 2026-04-29 15:03 | 34.37701 | 126.62304 | 17610 ft | 307 kts | 192° |
| 2026-04-29 15:03 | 34.35569 | 126.62078 | 17173 ft | 306 kts | 192° |
| 2026-04-29 15:03 | 34.33457 | 126.61855 | 16741 ft | 304 kts | 192° |
| 2026-04-29 15:03 | 34.31346 | 126.61634 | 16299 ft | 304 kts | 191° |
| 2026-04-29 15:04 | 34.29242 | 126.61413 | 15859 ft | 303 kts | 191° |
| 2026-04-29 15:04 | 34.27141 | 126.61194 | 15424 ft | 303 kts | 191° |
| 2026-04-29 15:04 | 34.25039 | 126.60975 | 14971 ft | 304 kts | 190° |
| 2026-04-29 15:04 | 34.23123 | 126.60776 | 14558 ft | 305 kts | 190° |
| 2026-04-29 15:05 | 34.20928 | 126.60548 | 14075 ft | 307 kts | 189° |
| 2026-04-29 15:05 | 34.18787 | 126.60325 | 13445 ft | 311 kts | 190° |
| 2026-04-29 15:05 | 34.16628 | 126.60101 | 12948 ft | 311 kts | 190° |
| 2026-04-29 15:05 | 34.14479 | 126.59879 | 12470 ft | 310 kts | 189° |
| 2026-04-29 15:06 | 34.12334 | 126.59657 | 11995 ft | 309 kts | 189° |
| 2026-04-29 15:06 | 34.10198 | 126.59435 | 11622 ft | 305 kts | 188° |
| 2026-04-29 15:06 | 34.08132 | 126.59236 | 11493 ft | 293 kts | 185° |
| 2026-04-29 15:06 | 34.06123 | 126.59587 | 11303 ft | 291 kts | 166° |
| 2026-04-29 15:07 | 34.04247 | 126.60341 | 11236 ft | 278 kts | 166° |
| 2026-04-29 15:07 | 34.02453 | 126.61063 | 11174 ft | 265 kts | 166° |
| 2026-04-29 15:07 | 34.00695 | 126.61766 | 11120 ft | 276 kts | 166° |
| 2026-04-29 15:07 | 33.98834 | 126.62500 | 11063 ft | 285 kts | 166° |
| 2026-04-29 15:08 | 33.96949 | 126.63248 | 10998 ft | 288 kts | 166° |
| 2026-04-29 15:08 | 33.95041 | 126.64010 | 10908 ft | 288 kts | 166° |
| 2026-04-29 15:08 | 33.93145 | 126.64772 | 10617 ft | 287 kts | 166° |
| 2026-04-29 15:08 | 33.91257 | 126.65535 | 10255 ft | 285 kts | 165° |
| 2026-04-29 15:09 | 33.89376 | 126.66294 | 9866 ft | 285 kts | 165° |
| 2026-04-29 15:09 | 33.87505 | 126.67051 | 9478 ft | 283 kts | 165° |
| 2026-04-29 15:09 | 33.85642 | 126.67804 | 9107 ft | 281 kts | 164° |
| 2026-04-29 15:09 | 33.83793 | 126.68546 | 8736 ft | 280 kts | 164° |
| 2026-04-29 15:10 | 33.81951 | 126.69282 | 8369 ft | 278 kts | 164° |
| 2026-04-29 15:10 | 33.80118 | 126.70017 | 8003 ft | 277 kts | 163° |
| 2026-04-29 15:10 | 33.78297 | 126.70749 | 7636 ft | 276 kts | 163° |
| 2026-04-29 15:10 | 33.76479 | 126.71479 | 7271 ft | 275 kts | 163° |
| 2026-04-29 15:11 | 33.74672 | 126.72200 | 6917 ft | 274 kts | 163° |
| 2026-04-29 15:11 | 33.72867 | 126.72918 | 6555 ft | 273 kts | 163° |
| 2026-04-29 15:11 | 33.71071 | 126.73636 | 6180 ft | 272 kts | 163° |
| 2026-04-29 15:11 | 33.69281 | 126.74351 | 5808 ft | 270 kts | 162° |
| 2026-04-29 15:12 | 33.67499 | 126.75045 | 5461 ft | 268 kts | 166° |
| 2026-04-29 15:12 | 33.66258 | 126.75208 | 5223 ft | 266 kts | 184° |
| 2026-04-29 15:12 | 33.64051 | 126.74053 | 4743 ft | 267 kts | 224° |
| 2026-04-29 15:12 | 33.62975 | 126.72249 | 4368 ft | 267 kts | 238° |
| 2026-04-29 15:13 | 33.62009 | 126.70349 | 4002 ft | 267 kts | 238° |
| 2026-04-29 15:13 | 33.61042 | 126.68443 | 3635 ft | 267 kts | 238° |
| 2026-04-29 15:13 | 33.60075 | 126.66539 | 3268 ft | 267 kts | 238° |
| 2026-04-29 15:13 | 33.59109 | 126.64642 | 2919 ft | 266 kts | 239° |
| 2026-04-29 15:14 | 33.58141 | 126.62746 | 2570 ft | 266 kts | 239° |
| 2026-04-29 15:14 | 33.57173 | 126.60854 | 2380 ft | 254 kts | 239° |
| 2026-04-29 15:14 | 33.56287 | 126.59125 | 2001 ft | 239 kts | 239° |
| 2026-04-29 15:14 | 33.55440 | 126.57471 | 1596 ft | 221 kts | 238° |
| 2026-04-29 15:15 | 33.54678 | 126.55985 | 1288 ft | 204 kts | 238° |
| 2026-04-29 15:15 | 33.53962 | 126.54589 | 1028 ft | 190 kts | 238° |
| 2026-04-29 15:15 | 33.53299 | 126.53296 | 824 ft | 170 kts | 238° |
| 2026-04-29 15:15 | 33.52723 | 126.52170 | 632 ft | 150 kts | 239° |
| 2026-04-29 15:16 | 33.52205 | 126.51126 | 426 ft | 142 kts | 238° |
| 2026-04-29 15:16 | 33.51685 | 126.50135 | 263 ft | 139 kts | 238° |
| 2026-04-29 15:16 | 33.51182 | 126.49164 | 145 ft | 128 kts | 243° |
| 2026-04-29 15:16 | 33.50804 | 126.48433 | 137 ft | 62 kts | 238° |
| 2026-04-29 15:17 | 33.50655 | 126.48144 | 135 ft | 34 kts | 237° |
| 2026-04-29 15:17 | 33.50507 | 126.47966 | 135 ft | 12 kts | 208° |
| 2026-04-29 15:17 | 33.50425 | 126.47926 | 136 ft | 13 kts | 184° |
| 2026-04-29 15:17 | 33.50379 | 126.47954 | 135 ft | 11 kts | 119° |
| 2026-04-29 15:18 | 33.50424 | 126.48074 | 135 ft | 13 kts | 58° |
| 2026-04-29 15:18 | 33.50483 | 126.48189 | 135 ft | 18 kts | 58° |
| 2026-04-29 15:18 | 33.50528 | 126.48279 | 135 ft | 19 kts | 60° |
| 2026-04-29 15:18 | 33.50455 | 126.48394 | 135 ft | 15 kts | 140° |
| 2026-04-29 15:19 | 33.50464 | 126.48508 | 135 ft | 16 kts | 58° |
| 2026-04-29 15:19 | 33.50505 | 126.48586 | 135 ft | 17 kts | 57° |
| 2026-04-29 15:19 | 33.50570 | 126.48712 | 135 ft | 19 kts | 58° |
| 2026-04-29 15:19 | 33.50631 | 126.48830 | 135 ft | 10 kts | 58° |
| 2026-04-29 15:20 | 33.50624 | 126.48868 | 135 ft | 4 kts | 133° |
| 2026-04-29 15:20 | 33.50597 | 126.48890 | 135 ft | 4 kts | 147° |
| 2026-04-29 15:20 | 33.50579 | 126.48903 | 135 ft | 3 kts | 148° |
| 2026-04-29 15:20 | 33.50565 | 126.48913 | 135 ft | 0 kts | 149° |